This is the latest recevied weather packets stored in our database for station/object EA4URC-13. If no packets are shown the sender has not sent any weather packets the latest 10 day(s).
| Time | Temp. | Humidity | Pressure | Rain* | Wind** | Luminosity | Snow |
|---|---|---|---|---|---|---|---|
| 1777343770 | 11.11° C | 26% | 1006.5 hPa | - | - | - | - |
| 1777342858 | 11.11° C | 26% | 1006.7 hPa | - | - | - | - |
| 1777341958 | 11.11° C | 26% | 1006.8 hPa | - | - | - | - |
| 1777341038 | 11.11° C | 27% | 1006.7 hPa | - | - | - | - |
| 1777340138 | 10.56° C | 28% | 1007.3 hPa | - | - | - | - |
| 1777339228 | 11.11° C | 28% | 1007.4 hPa | - | - | - | - |
| 1777338325 | 11.11° C | 28% | 1007.5 hPa | - | - | - | - |
| 1777337419 | 11.11° C | 28% | 1007.7 hPa | - | - | - | - |
| 1777336519 | 10.56° C | 28% | 1008 hPa | - | - | - | - |
| 1777335606 | 11.67° C | 28% | 1007.6 hPa | - | - | - | - |
| 1777334706 | 11.67° C | 27% | 1007.7 hPa | - | - | - | - |
| 1777333798 | 12.22° C | 27% | 1007.7 hPa | - | - | - | - |
| 1777332898 | 12.78° C | 27% | 1007.8 hPa | - | - | - | - |
| 1777331998 | 12.78° C | 27% | 1007.8 hPa | - | - | - | - |
| 1777331080 | 12.78° C | 26% | 1007.9 hPa | - | - | - | - |
| 1777329267 | 12.78° C | 26% | 1007.7 hPa | - | - | - | - |
| 1777328354 | 12.78° C | 26% | 1007.8 hPa | - | - | - | - |
| 1777327454 | 12.78° C | 26% | 1007.9 hPa | - | - | - | - |
| 1777326535 | 13.89° C | 27% | 1007.6 hPa | - | - | - | - |
| 1777325635 | 13.33° C | 27% | 1007.8 hPa | - | - | - | - |
| 1777324733 | 13.33° C | 25% | 1007.6 hPa | - | - | - | - |
| 1777323922 | 13.89° C | 26% | 1007.7 hPa | - | - | - | - |
| 1777323833 | 13.89° C | 26% | 1007.7 hPa | - | - | - | - |
| 1777322933 | 14.44° C | 27% | 1007.4 hPa | - | - | - | - |
| 1777322033 | 14.44° C | 27% | 1007.3 hPa | - | - | - | - |
* Rain since midnight (hover to see other rain measurements)
** Current wind speed in m/s (hover to see current wind gust speed)